sensor_id;sensor_type;location;lat;lon;timestamp;temperature;humidity
67799;SHT30;54596;43.216;27.904;2023-12-20T00:01:02;4.58;89.71
67799;SHT30;54596;43.216;27.904;2023-12-20T00:03:28;4.57;89.72
67799;SHT30;54596;43.216;27.904;2023-12-20T00:05:53;4.56;89.72
67799;SHT30;54596;43.216;27.904;2023-12-20T00:08:19;4.52;89.72
67799;SHT30;54596;43.216;27.904;2023-12-20T00:10:44;4.50;89.73
67799;SHT30;54596;43.216;27.904;2023-12-20T00:13:10;4.49;89.67
67799;SHT30;54596;43.216;27.904;2023-12-20T00:15:36;4.47;89.79
67799;SHT30;54596;43.216;27.904;2023-12-20T00:18:02;4.46;89.84
67799;SHT30;54596;43.216;27.904;2023-12-20T00:20:28;4.45;89.82
67799;SHT30;54596;43.216;27.904;2023-12-20T00:22:56;4.43;89.79
67799;SHT30;54596;43.216;27.904;2023-12-20T00:25:23;4.40;89.80
67799;SHT30;54596;43.216;27.904;2023-12-20T00:27:48;4.39;89.84
67799;SHT30;54596;43.216;27.904;2023-12-20T00:30:14;4.42;89.86
67799;SHT30;54596;43.216;27.904;2023-12-20T00:32:40;4.36;89.81
67799;SHT30;54596;43.216;27.904;2023-12-20T00:35:12;4.38;89.79
67799;SHT30;54596;43.216;27.904;2023-12-20T00:37:38;4.35;89.81
67799;SHT30;54596;43.216;27.904;2023-12-20T00:40:04;4.35;89.90
67799;SHT30;54596;43.216;27.904;2023-12-20T00:42:29;4.33;89.94
67799;SHT30;54596;43.216;27.904;2023-12-20T00:44:55;4.29;90.03
67799;SHT30;54596;43.216;27.904;2023-12-20T00:47:21;4.23;90.28
67799;SHT30;54596;43.216;27.904;2023-12-20T00:49:47;4.26;90.59
67799;SHT30;54596;43.216;27.904;2023-12-20T00:52:12;4.25;90.59
67799;SHT30;54596;43.216;27.904;2023-12-20T00:54:38;4.25;90.57
67799;SHT30;54596;43.216;27.904;2023-12-20T00:57:04;4.25;90.57
67799;SHT30;54596;43.216;27.904;2023-12-20T00:59:30;4.22;90.58
67799;SHT30;54596;43.216;27.904;2023-12-20T01:01:55;4.18;90.60
67799;SHT30;54596;43.216;27.904;2023-12-20T01:04:21;4.21;90.56
67799;SHT30;54596;43.216;27.904;2023-12-20T01:06:46;4.21;90.53
67799;SHT30;54596;43.216;27.904;2023-12-20T01:09:12;4.16;90.55
67799;SHT30;54596;43.216;27.904;2023-12-20T01:11:37;4.16;90.67
67799;SHT30;54596;43.216;27.904;2023-12-20T01:14:03;4.16;90.78
67799;SHT30;54596;43.216;27.904;2023-12-20T01:16:28;4.18;90.84
67799;SHT30;54596;43.216;27.904;2023-12-20T01:18:54;4.22;90.82
67799;SHT30;54596;43.216;27.904;2023-12-20T01:21:19;4.22;90.79
67799;SHT30;54596;43.216;27.904;2023-12-20T01:23:45;4.21;90.67
67799;SHT30;54596;43.216;27.904;2023-12-20T01:26:11;4.21;90.60
67799;SHT30;54596;43.216;27.904;2023-12-20T01:28:37;4.22;90.60
67799;SHT30;54596;43.216;27.904;2023-12-20T01:31:03;4.22;90.52
67799;SHT30;54596;43.216;27.904;2023-12-20T01:33:29;4.19;90.48
67799;SHT30;54596;43.216;27.904;2023-12-20T01:35:54;4.19;90.46
67799;SHT30;54596;43.216;27.904;2023-12-20T01:38:20;4.18;90.46
67799;SHT30;54596;43.216;27.904;2023-12-20T01:40:46;4.18;90.47
67799;SHT30;54596;43.216;27.904;2023-12-20T01:43:11;4.18;90.51
67799;SHT30;54596;43.216;27.904;2023-12-20T01:45:38;4.16;90.49
67799;SHT30;54596;43.216;27.904;2023-12-20T01:48:05;4.16;90.55
67799;SHT30;54596;43.216;27.904;2023-12-20T01:50:31;4.16;90.52
67799;SHT30;54596;43.216;27.904;2023-12-20T01:52:59;4.09;90.51
67799;SHT30;54596;43.216;27.904;2023-12-20T01:55:27;4.09;90.49
67799;SHT30;54596;43.216;27.904;2023-12-20T01:57:55;4.06;90.50
67799;SHT30;54596;43.216;27.904;2023-12-20T02:00:22;4.04;90.44
67799;SHT30;54596;43.216;27.904;2023-12-20T02:02:53;3.97;90.35
67799;SHT30;54596;43.216;27.904;2023-12-20T02:05:21;3.94;90.30
67799;SHT30;54596;43.216;27.904;2023-12-20T02:07:47;3.90;90.32
67799;SHT30;54596;43.216;27.904;2023-12-20T02:10:13;3.91;90.24
67799;SHT30;54596;43.216;27.904;2023-12-20T02:12:39;3.88;90.21
67799;SHT30;54596;43.216;27.904;2023-12-20T02:15:04;3.84;90.25
67799;SHT30;54596;43.216;27.904;2023-12-20T02:17:31;3.83;90.32
67799;SHT30;54596;43.216;27.904;2023-12-20T02:19:57;3.80;90.31
67799;SHT30;54596;43.216;27.904;2023-12-20T02:22:23;3.74;90.33
67799;SHT30;54596;43.216;27.904;2023-12-20T02:24:49;3.71;90.41
67799;SHT30;54596;43.216;27.904;2023-12-20T02:27:15;3.71;90.55
67799;SHT30;54596;43.216;27.904;2023-12-20T02:29:40;3.71;90.74
67799;SHT30;54596;43.216;27.904;2023-12-20T02:32:06;3.71;90.89
67799;SHT30;54596;43.216;27.904;2023-12-20T02:34:31;3.73;91.03
67799;SHT30;54596;43.216;27.904;2023-12-20T02:36:57;3.77;91.08
67799;SHT30;54596;43.216;27.904;2023-12-20T02:39:23;3.76;90.97
67799;SHT30;54596;43.216;27.904;2023-12-20T02:41:48;3.73;91.02
67799;SHT30;54596;43.216;27.904;2023-12-20T02:44:14;3.73;91.20
67799;SHT30;54596;43.216;27.904;2023-12-20T02:46:40;3.70;91.45
67799;SHT30;54596;43.216;27.904;2023-12-20T02:49:06;3.73;91.47
67799;SHT30;54596;43.216;27.904;2023-12-20T02:51:32;3.71;91.52
67799;SHT30;54596;43.216;27.904;2023-12-20T02:53:57;3.73;91.49
67799;SHT30;54596;43.216;27.904;2023-12-20T02:56:23;3.76;91.51
67799;SHT30;54596;43.216;27.904;2023-12-20T02:58:48;3.76;91.57
67799;SHT30;54596;43.216;27.904;2023-12-20T03:01:14;3.76;91.45
67799;SHT30;54596;43.216;27.904;2023-12-20T03:03:40;3.76;91.47
67799;SHT30;54596;43.216;27.904;2023-12-20T03:06:05;3.77;91.35
67799;SHT30;54596;43.216;27.904;2023-12-20T03:08:31;3.76;91.31
67799;SHT30;54596;43.216;27.904;2023-12-20T03:10:56;3.73;91.21
67799;SHT30;54596;43.216;27.904;2023-12-20T03:13:22;3.74;91.05
67799;SHT30;54596;43.216;27.904;2023-12-20T03:15:47;3.74;90.92
67799;SHT30;54596;43.216;27.904;2023-12-20T03:18:13;3.73;90.88
67799;SHT30;54596;43.216;27.904;2023-12-20T03:20:38;3.73;90.85
67799;SHT30;54596;43.216;27.904;2023-12-20T03:23:06;3.71;90.84
67799;SHT30;54596;43.216;27.904;2023-12-20T03:25:31;3.69;90.90
67799;SHT30;54596;43.216;27.904;2023-12-20T03:27:57;3.69;91.09
67799;SHT30;54596;43.216;27.904;2023-12-20T03:30:22;3.67;91.14
67799;SHT30;54596;43.216;27.904;2023-12-20T03:32:48;3.67;91.11
67799;SHT30;54596;43.216;27.904;2023-12-20T03:35:13;3.67;91.11
67799;SHT30;54596;43.216;27.904;2023-12-20T03:37:39;3.64;91.04
67799;SHT30;54596;43.216;27.904;2023-12-20T03:40:05;3.66;90.95
67799;SHT30;54596;43.216;27.904;2023-12-20T03:42:30;3.60;90.91
67799;SHT30;54596;43.216;27.904;2023-12-20T03:44:56;3.62;90.97
67799;SHT30;54596;43.216;27.904;2023-12-20T03:47:22;3.56;90.94
67799;SHT30;54596;43.216;27.904;2023-12-20T03:49:47;3.56;90.92
67799;SHT30;54596;43.216;27.904;2023-12-20T03:52:13;3.59;90.99
67799;SHT30;54596;43.216;27.904;2023-12-20T03:54:39;3.63;91.20
67799;SHT30;54596;43.216;27.904;2023-12-20T03:57:05;3.62;91.15
67799;SHT30;54596;43.216;27.904;2023-12-20T03:59:35;3.67;91.14
67799;SHT30;54596;43.216;27.904;2023-12-20T04:02:01;3.67;90.97
67799;SHT30;54596;43.216;27.904;2023-12-20T04:04:27;3.70;90.94
67799;SHT30;54596;43.216;27.904;2023-12-20T04:06:52;3.67;90.78
67799;SHT30;54596;43.216;27.904;2023-12-20T04:09:36;3.67;90.86
67799;SHT30;54596;43.216;27.904;2023-12-20T04:12:03;3.70;90.85
67799;SHT30;54596;43.216;27.904;2023-12-20T04:14:28;3.67;90.79
67799;SHT30;54596;43.216;27.904;2023-12-20T04:16:54;3.66;90.82
67799;SHT30;54596;43.216;27.904;2023-12-20T04:19:20;3.66;90.75
67799;SHT30;54596;43.216;27.904;2023-12-20T04:21:45;3.63;90.73
67799;SHT30;54596;43.216;27.904;2023-12-20T04:24:11;3.63;90.75
67799;SHT30;54596;43.216;27.904;2023-12-20T04:26:36;3.59;90.68
67799;SHT30;54596;43.216;27.904;2023-12-20T04:29:02;3.62;90.64
67799;SHT30;54596;43.216;27.904;2023-12-20T04:31:28;3.59;90.63
67799;SHT30;54596;43.216;27.904;2023-12-20T04:33:53;3.60;90.57
67799;SHT30;54596;43.216;27.904;2023-12-20T04:36:19;3.60;90.43
67799;SHT30;54596;43.216;27.904;2023-12-20T04:38:44;3.64;90.39
67799;SHT30;54596;43.216;27.904;2023-12-20T04:41:10;3.55;90.16
67799;SHT30;54596;43.216;27.904;2023-12-20T04:43:35;3.53;90.19
67799;SHT30;54596;43.216;27.904;2023-12-20T04:46:01;3.48;90.20
67799;SHT30;54596;43.216;27.904;2023-12-20T04:48:28;3.49;90.21
67799;SHT30;54596;43.216;27.904;2023-12-20T04:50:53;3.40;90.35
67799;SHT30;54596;43.216;27.904;2023-12-20T04:53:19;3.38;90.45
67799;SHT30;54596;43.216;27.904;2023-12-20T04:55:44;3.38;90.43
67799;SHT30;54596;43.216;27.904;2023-12-20T04:58:10;3.36;90.33
67799;SHT30;54596;43.216;27.904;2023-12-20T05:00:35;3.33;90.27
67799;SHT30;54596;43.216;27.904;2023-12-20T05:03:02;3.33;90.34
67799;SHT30;54596;43.216;27.904;2023-12-20T05:05:27;3.29;90.32
67799;SHT30;54596;43.216;27.904;2023-12-20T05:07:53;3.31;90.46
67799;SHT30;54596;43.216;27.904;2023-12-20T05:10:19;3.28;90.42
67799;SHT30;54596;43.216;27.904;2023-12-20T05:12:44;3.26;90.65
67799;SHT30;54596;43.216;27.904;2023-12-20T05:15:10;3.29;90.69
67799;SHT30;54596;43.216;27.904;2023-12-20T05:17:35;3.32;90.83
67799;SHT30;54596;43.216;27.904;2023-12-20T05:20:01;3.31;90.80
67799;SHT30;54596;43.216;27.904;2023-12-20T05:22:27;3.29;90.75
67799;SHT30;54596;43.216;27.904;2023-12-20T05:24:53;3.31;90.67
67799;SHT30;54596;43.216;27.904;2023-12-20T05:27:19;3.25;90.63
67799;SHT30;54596;43.216;27.904;2023-12-20T05:29:45;3.26;90.84
67799;SHT30;54596;43.216;27.904;2023-12-20T05:32:11;3.25;90.99
67799;SHT30;54596;43.216;27.904;2023-12-20T05:34:37;3.26;91.00
67799;SHT30;54596;43.216;27.904;2023-12-20T05:37:02;3.28;90.99
67799;SHT30;54596;43.216;27.904;2023-12-20T05:39:29;3.31;90.96
67799;SHT30;54596;43.216;27.904;2023-12-20T05:41:56;3.33;90.85
67799;SHT30;54596;43.216;27.904;2023-12-20T05:44:22;3.31;90.59
67799;SHT30;54596;43.216;27.904;2023-12-20T05:46:49;3.35;90.52
67799;SHT30;54596;43.216;27.904;2023-12-20T05:49:14;3.32;90.45
67799;SHT30;54596;43.216;27.904;2023-12-20T05:51:42;3.32;90.48
67799;SHT30;54596;43.216;27.904;2023-12-20T05:54:09;3.32;90.57
67799;SHT30;54596;43.216;27.904;2023-12-20T05:56:35;3.35;90.71
67799;SHT30;54596;43.216;27.904;2023-12-20T05:59:01;3.39;90.80
67799;SHT30;54596;43.216;27.904;2023-12-20T06:01:42;3.42;90.69
67799;SHT30;54596;43.216;27.904;2023-12-20T06:04:07;3.42;90.70
67799;SHT30;54596;43.216;27.904;2023-12-20T06:06:33;3.44;90.68
67799;SHT30;54596;43.216;27.904;2023-12-20T06:08:59;3.46;90.68
67799;SHT30;54596;43.216;27.904;2023-12-20T06:11:25;3.49;90.70
67799;SHT30;54596;43.216;27.904;2023-12-20T06:13:51;3.55;90.88
67799;SHT30;54596;43.216;27.904;2023-12-20T06:16:18;3.56;90.87
67799;SHT30;54596;43.216;27.904;2023-12-20T06:18:44;3.62;90.79
67799;SHT30;54596;43.216;27.904;2023-12-20T06:21:09;3.66;90.79
67799;SHT30;54596;43.216;27.904;2023-12-20T06:23:38;3.73;90.84
67799;SHT30;54596;43.216;27.904;2023-12-20T06:26:04;3.76;90.89
67799;SHT30;54596;43.216;27.904;2023-12-20T06:28:31;3.83;90.91
67799;SHT30;54596;43.216;27.904;2023-12-20T06:30:56;3.88;90.96
67799;SHT30;54596;43.216;27.904;2023-12-20T06:33:22;3.95;90.83
67799;SHT30;54596;43.216;27.904;2023-12-20T06:35:49;4.02;90.82
67799;SHT30;54596;43.216;27.904;2023-12-20T06:38:15;4.15;90.67
67799;SHT30;54596;43.216;27.904;2023-12-20T06:40:40;4.80;90.08
67799;SHT30;54596;43.216;27.904;2023-12-20T06:43:06;5.84;88.51
67799;SHT30;54596;43.216;27.904;2023-12-20T06:45:32;6.88;85.56
67799;SHT30;54596;43.216;27.904;2023-12-20T06:47:57;7.82;82.68
67799;SHT30;54596;43.216;27.904;2023-12-20T06:50:24;8.59;80.10
67799;SHT30;54596;43.216;27.904;2023-12-20T06:52:49;9.25;77.24
67799;SHT30;54596;43.216;27.904;2023-12-20T06:55:15;10.00;75.37
67799;SHT30;54596;43.216;27.904;2023-12-20T06:57:40;10.69;73.88
67799;SHT30;54596;43.216;27.904;2023-12-20T07:00:07;11.12;72.48
67799;SHT30;54596;43.216;27.904;2023-12-20T07:02:35;11.52;71.34
67799;SHT30;54596;43.216;27.904;2023-12-20T07:05:00;11.84;70.10
67799;SHT30;54596;43.216;27.904;2023-12-20T07:07:27;12.14;69.09
67799;SHT30;54596;43.216;27.904;2023-12-20T07:09:57;12.64;68.21
67799;SHT30;54596;43.216;27.904;2023-12-20T07:12:24;12.98;67.12
67799;SHT30;54596;43.216;27.904;2023-12-20T07:14:51;13.43;66.42
67799;SHT30;54596;43.216;27.904;2023-12-20T07:17:16;13.59;65.38
67799;SHT30;54596;43.216;27.904;2023-12-20T07:19:42;13.87;64.84
67799;SHT30;54596;43.216;27.904;2023-12-20T07:22:07;14.04;64.36
67799;SHT30;54596;43.216;27.904;2023-12-20T07:24:34;14.53;64.22
67799;SHT30;54596;43.216;27.904;2023-12-20T07:27:00;14.81;63.20
67799;SHT30;54596;43.216;27.904;2023-12-20T07:29:26;15.05;62.77
67799;SHT30;54596;43.216;27.904;2023-12-20T07:31:52;15.18;62.30
67799;SHT30;54596;43.216;27.904;2023-12-20T07:34:22;15.24;61.85
67799;SHT30;54596;43.216;27.904;2023-12-20T07:36:47;15.49;61.43
67799;SHT30;54596;43.216;27.904;2023-12-20T07:39:15;15.61;60.93
67799;SHT30;54596;43.216;27.904;2023-12-20T07:41:42;16.00;60.72
67799;SHT30;54596;43.216;27.904;2023-12-20T07:44:08;16.16;60.46
67799;SHT30;54596;43.216;27.904;2023-12-20T07:46:35;16.25;60.15
67799;SHT30;54596;43.216;27.904;2023-12-20T07:49:11;16.19;60.08
67799;SHT30;54596;43.216;27.904;2023-12-20T07:51:36;16.29;60.35
67799;SHT30;54596;43.216;27.904;2023-12-20T07:54:02;16.22;60.29
67799;SHT30;54596;43.216;27.904;2023-12-20T07:56:49;16.26;60.29
67799;SHT30;54596;43.216;27.904;2023-12-20T07:59:18;16.73;60.25
67799;SHT30;54596;43.216;27.904;2023-12-20T08:11:47;19.08;53.65
67799;SHT30;54596;43.216;27.904;2023-12-20T08:14:14;19.65;55.00
67799;SHT30;54596;43.216;27.904;2023-12-20T08:16:42;19.23;52.10
67799;SHT30;54596;43.216;27.904;2023-12-20T08:22:27;20.47;49.92
67799;SHT30;54596;43.216;27.904;2023-12-20T08:24:54;20.94;49.34
67799;SHT30;54596;43.216;27.904;2023-12-20T08:27:22;21.14;48.73
67799;SHT30;54596;43.216;27.904;2023-12-20T08:29:54;21.51;48.78
67799;SHT30;54596;43.216;27.904;2023-12-20T08:32:21;21.67;47.93
67799;SHT30;54596;43.216;27.904;2023-12-20T08:44:49;22.20;45.36
67799;SHT30;54596;43.216;27.904;2023-12-20T08:47:15;22.26;45.15
67799;SHT30;54596;43.216;27.904;2023-12-20T08:49:41;21.95;45.93
67799;SHT30;54596;43.216;27.904;2023-12-20T08:52:06;21.98;45.81
67799;SHT30;54596;43.216;27.904;2023-12-20T08:54:32;21.09;46.19
67799;SHT30;54596;43.216;27.904;2023-12-20T08:56:58;20.58;48.05
67799;SHT30;54596;43.216;27.904;2023-12-20T08:59:25;19.79;49.38
67799;SHT30;54596;43.216;27.904;2023-12-20T09:01:50;19.43;50.12
67799;SHT30;54596;43.216;27.904;2023-12-20T09:04:20;19.09;51.02
67799;SHT30;54596;43.216;27.904;2023-12-20T09:06:45;18.85;52.21
67799;SHT30;54596;43.216;27.904;2023-12-20T09:09:11;18.53;52.69
67799;SHT30;54596;43.216;27.904;2023-12-20T09:11:39;18.33;53.92
67799;SHT30;54596;43.216;27.904;2023-12-20T09:14:04;18.09;54.85
67799;SHT30;54596;43.216;27.904;2023-12-20T09:16:30;17.91;55.17
67799;SHT30;54596;43.216;27.904;2023-12-20T09:18:57;17.54;54.53
67799;SHT30;54596;43.216;27.904;2023-12-20T09:21:23;17.36;55.23
67799;SHT30;54596;43.216;27.904;2023-12-20T09:23:49;17.14;56.55
67799;SHT30;54596;43.216;27.904;2023-12-20T09:26:16;17.01;57.17
67799;SHT30;54596;43.216;27.904;2023-12-20T09:28:41;16.88;57.63
67799;SHT30;54596;43.216;27.904;2023-12-20T09:31:07;16.68;58.55
67799;SHT30;54596;43.216;27.904;2023-12-20T09:33:33;16.45;59.06
67799;SHT30;54596;43.216;27.904;2023-12-20T09:35:59;16.08;59.85
67799;SHT30;54596;43.216;27.904;2023-12-20T09:38:26;15.33;60.31
67799;SHT30;54596;43.216;27.904;2023-12-20T09:40:51;14.76;62.12
67799;SHT30;54596;43.216;27.904;2023-12-20T09:43:19;14.53;62.63
67799;SHT30;54596;43.216;27.904;2023-12-20T09:45:48;14.32;63.22
67799;SHT30;54596;43.216;27.904;2023-12-20T09:48:18;14.15;63.88
67799;SHT30;54596;43.216;27.904;2023-12-20T09:50:44;13.95;64.31
67799;SHT30;54596;43.216;27.904;2023-12-20T09:53:15;13.83;64.46
67799;SHT30;54596;43.216;27.904;2023-12-20T09:55:42;13.76;65.05
67799;SHT30;54596;43.216;27.904;2023-12-20T09:58:09;13.63;65.21
67799;SHT30;54596;43.216;27.904;2023-12-20T10:00:38;13.57;66.07
67799;SHT30;54596;43.216;27.904;2023-12-20T10:03:06;13.59;66.66
67799;SHT30;54596;43.216;27.904;2023-12-20T10:05:32;13.49;67.07
67799;SHT30;54596;43.216;27.904;2023-12-20T10:08:00;13.34;66.25
67799;SHT30;54596;43.216;27.904;2023-12-20T10:10:27;13.26;67.27
67799;SHT30;54596;43.216;27.904;2023-12-20T10:13:10;13.14;66.70
67799;SHT30;54596;43.216;27.904;2023-12-20T10:15:37;12.93;67.34
67799;SHT30;54596;43.216;27.904;2023-12-20T10:18:03;12.93;67.56
67799;SHT30;54596;43.216;27.904;2023-12-20T10:20:30;12.84;67.75
67799;SHT30;54596;43.216;27.904;2023-12-20T10:23:00;12.72;68.34
67799;SHT30;54596;43.216;27.904;2023-12-20T10:25:26;12.60;69.03
67799;SHT30;54596;43.216;27.904;2023-12-20T10:28:11;12.48;69.73
67799;SHT30;54596;43.216;27.904;2023-12-20T10:30:37;12.41;70.30
67799;SHT30;54596;43.216;27.904;2023-12-20T10:33:08;12.32;71.08
67799;SHT30;54596;43.216;27.904;2023-12-20T10:35:39;12.25;71.74
67799;SHT30;54596;43.216;27.904;2023-12-20T10:38:05;12.25;72.56
67799;SHT30;54596;43.216;27.904;2023-12-20T10:40:37;12.24;73.05
67799;SHT30;54596;43.216;27.904;2023-12-20T10:43:03;12.25;73.23
67799;SHT30;54596;43.216;27.904;2023-12-20T10:45:29;12.18;73.71
67799;SHT30;54596;43.216;27.904;2023-12-20T10:47:56;12.20;73.91
67799;SHT30;54596;43.216;27.904;2023-12-20T10:50:24;12.15;73.87
67799;SHT30;54596;43.216;27.904;2023-12-20T10:52:51;12.13;73.90
67799;SHT30;54596;43.216;27.904;2023-12-20T10:55:21;12.15;74.08
67799;SHT30;54596;43.216;27.904;2023-12-20T10:57:51;12.18;73.81
67799;SHT30;54596;43.216;27.904;2023-12-20T11:00:21;12.24;73.27
67799;SHT30;54596;43.216;27.904;2023-12-20T11:02:50;12.24;72.04
67799;SHT30;54596;43.216;27.904;2023-12-20T11:07:53;12.24;71.48
67799;SHT30;54596;43.216;27.904;2023-12-20T11:11:02;12.32;70.92
67799;SHT30;54596;43.216;27.904;2023-12-20T11:13:44;12.34;69.84
67799;SHT30;54596;43.216;27.904;2023-12-20T11:16:14;12.35;69.68
67799;SHT30;54596;43.216;27.904;2023-12-20T11:18:40;12.38;69.64
67799;SHT30;54596;43.216;27.904;2023-12-20T11:21:07;12.46;69.74
67799;SHT30;54596;43.216;27.904;2023-12-20T11:23:34;12.48;68.90
67799;SHT30;54596;43.216;27.904;2023-12-20T11:26:01;12.55;69.46
67799;SHT30;54596;43.216;27.904;2023-12-20T11:28:27;12.53;69.69
67799;SHT30;54596;43.216;27.904;2023-12-20T11:30:58;12.56;70.49
67799;SHT30;54596;43.216;27.904;2023-12-20T11:33:30;12.53;71.98
67799;SHT30;54596;43.216;27.904;2023-12-20T11:35:57;12.53;72.52
67799;SHT30;54596;43.216;27.904;2023-12-20T11:38:24;12.52;73.76
67799;SHT30;54596;43.216;27.904;2023-12-20T11:40:51;12.34;75.51
67799;SHT30;54596;43.216;27.904;2023-12-20T11:43:53;12.18;76.58
67799;SHT30;54596;43.216;27.904;2023-12-20T11:46:20;12.18;77.32
67799;SHT30;54596;43.216;27.904;2023-12-20T11:48:46;12.13;77.98
67799;SHT30;54596;43.216;27.904;2023-12-20T11:51:13;12.13;78.49
67799;SHT30;54596;43.216;27.904;2023-12-20T11:53:40;12.13;78.73
67799;SHT30;54596;43.216;27.904;2023-12-20T11:56:06;12.10;78.95
67799;SHT30;54596;43.216;27.904;2023-12-20T11:58:33;12.13;78.70
67799;SHT30;54596;43.216;27.904;2023-12-20T12:00:59;12.13;78.52
67799;SHT30;54596;43.216;27.904;2023-12-20T12:03:25;12.07;78.12
67799;SHT30;54596;43.216;27.904;2023-12-20T12:05:51;12.10;77.51
67799;SHT30;54596;43.216;27.904;2023-12-20T12:08:17;12.13;77.19
67799;SHT30;54596;43.216;27.904;2023-12-20T12:10:44;12.11;76.51
67799;SHT30;54596;43.216;27.904;2023-12-20T12:13:10;12.10;75.99
67799;SHT30;54596;43.216;27.904;2023-12-20T12:15:37;12.13;75.76
67799;SHT30;54596;43.216;27.904;2023-12-20T12:18:03;12.11;75.84
67799;SHT30;54596;43.216;27.904;2023-12-20T12:20:30;12.14;76.60
67799;SHT30;54596;43.216;27.904;2023-12-20T12:23:05;12.10;77.21
67799;SHT30;54596;43.216;27.904;2023-12-20T12:25:33;12.07;77.65
67799;SHT30;54596;43.216;27.904;2023-12-20T12:28:00;12.04;77.79
67799;SHT30;54596;43.216;27.904;2023-12-20T12:30:26;12.00;78.19
67799;SHT30;54596;43.216;27.904;2023-12-20T12:32:52;11.97;78.49
67799;SHT30;54596;43.216;27.904;2023-12-20T12:35:19;11.89;78.90
67799;SHT30;54596;43.216;27.904;2023-12-20T12:37:45;11.87;79.35
67799;SHT30;54596;43.216;27.904;2023-12-20T12:40:12;11.79;80.03
67799;SHT30;54596;43.216;27.904;2023-12-20T12:42:39;11.72;80.58
67799;SHT30;54596;43.216;27.904;2023-12-20T12:45:05;11.62;80.88
67799;SHT30;54596;43.216;27.904;2023-12-20T12:47:31;11.62;81.07
67799;SHT30;54596;43.216;27.904;2023-12-20T12:49:57;11.59;81.16
67799;SHT30;54596;43.216;27.904;2023-12-20T12:52:23;11.55;81.18
67799;SHT30;54596;43.216;27.904;2023-12-20T12:54:49;11.52;80.93
67799;SHT30;54596;43.216;27.904;2023-12-20T12:57:15;11.54;80.59
67799;SHT30;54596;43.216;27.904;2023-12-20T12:59:42;11.54;80.32
67799;SHT30;54596;43.216;27.904;2023-12-20T13:02:08;11.58;79.91
67799;SHT30;54596;43.216;27.904;2023-12-20T13:04:33;11.59;79.86
67799;SHT30;54596;43.216;27.904;2023-12-20T13:06:59;11.58;80.01
67799;SHT30;54596;43.216;27.904;2023-12-20T13:09:25;11.52;80.82
67799;SHT30;54596;43.216;27.904;2023-12-20T13:11:51;11.51;81.44
67799;SHT30;54596;43.216;27.904;2023-12-20T13:14:16;11.48;81.90
67799;SHT30;54596;43.216;27.904;2023-12-20T13:16:42;11.36;82.44
67799;SHT30;54596;43.216;27.904;2023-12-20T13:19:08;11.28;83.05
67799;SHT30;54596;43.216;27.904;2023-12-20T13:21:35;11.28;83.09
67799;SHT30;54596;43.216;27.904;2023-12-20T13:24:01;11.22;83.32
67799;SHT30;54596;43.216;27.904;2023-12-20T13:26:26;11.22;83.45
67799;SHT30;54596;43.216;27.904;2023-12-20T13:28:53;11.11;83.61
67799;SHT30;54596;43.216;27.904;2023-12-20T13:31:20;11.12;83.75
67799;SHT30;54596;43.216;27.904;2023-12-20T13:33:45;11.06;83.75
67799;SHT30;54596;43.216;27.904;2023-12-20T13:36:11;11.03;83.77
67799;SHT30;54596;43.216;27.904;2023-12-20T13:38:37;10.96;83.88
67799;SHT30;54596;43.216;27.904;2023-12-20T13:41:03;10.90;84.16
67799;SHT30;54596;43.216;27.904;2023-12-20T13:43:29;10.86;84.28
67799;SHT30;54596;43.216;27.904;2023-12-20T13:45:55;10.81;84.54
67799;SHT30;54596;43.216;27.904;2023-12-20T13:48:21;10.73;84.70
67799;SHT30;54596;43.216;27.904;2023-12-20T13:50:48;10.67;84.82
67799;SHT30;54596;43.216;27.904;2023-12-20T13:53:14;10.60;84.90
67799;SHT30;54596;43.216;27.904;2023-12-20T13:55:39;10.59;84.99
67799;SHT30;54596;43.216;27.904;2023-12-20T13:58:09;10.53;85.02
67799;SHT30;54596;43.216;27.904;2023-12-20T14:00:37;10.49;85.33
67799;SHT30;54596;43.216;27.904;2023-12-20T14:03:04;10.46;85.56
67799;SHT30;54596;43.216;27.904;2023-12-20T14:05:29;10.44;85.94
67799;SHT30;54596;43.216;27.904;2023-12-20T14:07:56;10.39;86.25
67799;SHT30;54596;43.216;27.904;2023-12-20T14:10:26;10.39;86.30
67799;SHT30;54596;43.216;27.904;2023-12-20T14:12:54;10.35;86.34
67799;SHT30;54596;43.216;27.904;2023-12-20T14:15:21;10.35;86.68
67799;SHT30;54596;43.216;27.904;2023-12-20T14:17:50;10.32;86.96
67799;SHT30;54596;43.216;27.904;2023-12-20T14:20:16;10.27;87.16
67799;SHT30;54596;43.216;27.904;2023-12-20T14:22:43;10.21;87.32
67799;SHT30;54596;43.216;27.904;2023-12-20T14:25:14;10.18;87.72
67799;SHT30;54596;43.216;27.904;2023-12-20T14:27:40;10.15;87.90
67799;SHT30;54596;43.216;27.904;2023-12-20T14:33:30;10.03;88.89
67799;SHT30;54596;43.216;27.904;2023-12-20T14:35:55;9.94;89.03
67799;SHT30;54596;43.216;27.904;2023-12-20T14:38:21;9.93;89.26
67799;SHT30;54596;43.216;27.904;2023-12-20T14:40:47;9.89;89.25
67799;SHT30;54596;43.216;27.904;2023-12-20T14:43:12;9.87;89.40
67799;SHT30;54596;43.216;27.904;2023-12-20T14:45:39;9.87;89.44
67799;SHT30;54596;43.216;27.904;2023-12-20T14:48:31;9.82;89.59
67799;SHT30;54596;43.216;27.904;2023-12-20T14:50:58;9.76;89.45
67799;SHT30;54596;43.216;27.904;2023-12-20T14:53:24;9.78;89.49
67799;SHT30;54596;43.216;27.904;2023-12-20T14:55:50;9.75;89.38
67799;SHT30;54596;43.216;27.904;2023-12-20T14:58:16;9.72;89.40
67799;SHT30;54596;43.216;27.904;2023-12-20T15:00:42;9.75;89.33
67799;SHT30;54596;43.216;27.904;2023-12-20T15:03:09;9.68;89.33
67799;SHT30;54596;43.216;27.904;2023-12-20T15:05:34;9.68;89.38
67799;SHT30;54596;43.216;27.904;2023-12-20T15:08:01;9.63;89.41
67799;SHT30;54596;43.216;27.904;2023-12-20T15:10:27;9.63;89.34
67799;SHT30;54596;43.216;27.904;2023-12-20T15:12:52;9.61;89.25
67799;SHT30;54596;43.216;27.904;2023-12-20T15:15:19;9.61;89.24
67799;SHT30;54596;43.216;27.904;2023-12-20T15:18:03;9.55;89.09
67799;SHT30;54596;43.216;27.904;2023-12-20T15:20:29;9.55;89.00
67799;SHT30;54596;43.216;27.904;2023-12-20T15:22:57;9.53;88.92
67799;SHT30;54596;43.216;27.904;2023-12-20T15:25:24;9.53;88.90
67799;SHT30;54596;43.216;27.904;2023-12-20T15:27:49;9.55;88.80
67799;SHT30;54596;43.216;27.904;2023-12-20T15:30:21;9.48;88.77
67799;SHT30;54596;43.216;27.904;2023-12-20T15:33:08;9.48;88.76
67799;SHT30;54596;43.216;27.904;2023-12-20T15:35:34;9.44;88.83
67799;SHT30;54596;43.216;27.904;2023-12-20T15:37:59;9.45;88.95
67799;SHT30;54596;43.216;27.904;2023-12-20T15:40:25;9.42;89.02
67799;SHT30;54596;43.216;27.904;2023-12-20T15:42:51;9.41;89.08
67799;SHT30;54596;43.216;27.904;2023-12-20T15:45:16;9.42;89.28
67799;SHT30;54596;43.216;27.904;2023-12-20T15:47:42;9.44;89.27
67799;SHT30;54596;43.216;27.904;2023-12-20T15:50:08;9.41;89.41
67799;SHT30;54596;43.216;27.904;2023-12-20T15:52:33;9.41;89.48